createdAt,value
2018-11-07T00:01:07.453Z,44.30
2018-11-07T00:03:35.965Z,47.43
2018-11-07T00:06:04.669Z,41.13
2018-11-07T00:08:33.228Z,45.43
2018-11-07T00:11:01.738Z,46.10
2018-11-07T00:13:30.253Z,52.00
2018-11-07T00:15:58.785Z,45.23
2018-11-07T00:18:27.285Z,47.20
2018-11-07T00:20:55.893Z,54.20
2018-11-07T00:23:24.397Z,46.63
2018-11-07T00:25:52.885Z,44.87
2018-11-07T00:28:21.440Z,47.00
2018-11-07T00:30:49.944Z,48.93
2018-11-07T00:33:18.416Z,48.37
2018-11-07T00:35:46.995Z,46.10
2018-11-07T00:38:15.485Z,42.53
2018-11-07T00:40:43.988Z,49.57
2018-11-07T00:43:12.500Z,46.60
2018-11-07T00:45:40.980Z,50.37
2018-11-07T00:48:09.480Z,58.03
2018-11-07T00:50:37.965Z,52.97
2018-11-07T00:53:06.504Z,57.90
2018-11-07T00:55:34.992Z,52.83
2018-11-07T00:58:03.548Z,55.60
2018-11-07T01:00:32.032Z,54.33
2018-11-07T01:03:00.536Z,63.53
2018-11-07T01:05:29.016Z,55.83
2018-11-07T01:07:57.512Z,62.87
2018-11-07T01:10:25.992Z,56.57
2018-11-07T01:12:54.499Z,59.70
2018-11-07T01:15:23.015Z,59.93
2018-11-07T01:17:51.492Z,51.00
2018-11-07T01:20:19.995Z,53.73
2018-11-07T01:22:48.467Z,52.83
2018-11-07T01:25:16.964Z,54.20
2018-11-07T01:27:45.485Z,57.13
2018-11-07T01:30:14.628Z,61.03
2018-11-07T01:32:43.188Z,54.53
2018-11-07T01:35:11.713Z,50.03
2018-11-07T01:37:40.243Z,60.03
2018-11-07T01:40:11.789Z,51.80
2018-11-07T01:42:40.308Z,50.00
2018-11-07T01:45:09.851Z,51.03
2018-11-07T01:47:38.396Z,50.67
2018-11-07T01:50:08.531Z,58.33
2018-11-07T01:52:37.003Z,51.70
2018-11-07T01:55:06.127Z,51.33
2018-11-07T01:57:34.847Z,57.57
2018-11-07T02:00:03.471Z,56.83
2018-11-07T02:02:31.960Z,55.33
2018-11-07T02:05:00.467Z,56.77
2018-11-07T02:07:28.966Z,69.97
2018-11-07T02:09:57.550Z,51.23
2018-11-07T02:12:26.039Z,55.83
2018-11-07T02:14:54.538Z,53.37
2018-11-07T02:17:23.019Z,57.60
2018-11-07T02:19:52.439Z,58.60
2018-11-07T02:22:20.922Z,59.13
2018-11-07T02:24:49.435Z,55.73
2018-11-07T02:27:17.967Z,55.77
2018-11-07T02:29:46.456Z,62.50
2018-11-07T02:32:14.953Z,63.83
2018-11-07T02:34:43.455Z,60.20
2018-11-07T02:37:12.012Z,63.90
2018-11-07T02:39:40.511Z,59.63
2018-11-07T02:42:09.020Z,57.23
2018-11-07T02:44:37.530Z,59.40
2018-11-07T02:47:06.107Z,61.77
2018-11-07T02:49:34.605Z,60.67
2018-11-07T02:52:03.138Z,58.87
2018-11-07T02:54:31.638Z,58.03
2018-11-07T02:57:00.178Z,63.30
2018-11-07T02:59:28.682Z,62.50
2018-11-07T03:01:57.182Z,52.13
2018-11-07T03:04:25.666Z,57.70
2018-11-07T03:06:54.170Z,59.83
2018-11-07T03:09:22.686Z,55.13
2018-11-07T03:11:51.189Z,49.53
2018-11-07T03:14:19.666Z,60.13
2018-11-07T03:16:48.162Z,64.97
2018-11-07T03:19:16.646Z,65.53
2018-11-07T03:21:45.174Z,55.57
2018-11-07T03:24:13.682Z,61.00
2018-11-07T03:26:42.177Z,58.93
2018-11-07T03:29:10.654Z,60.80
2018-11-07T03:31:39.154Z,53.03
2018-11-07T03:34:07.654Z,55.73
2018-11-07T03:36:36.138Z,61.47
2018-11-07T03:39:07.881Z,57.17
2018-11-07T03:41:36.435Z,60.40
2018-11-07T03:44:05.258Z,58.43
2018-11-07T03:46:33.789Z,57.13
2018-11-07T03:49:02.290Z,58.53
2018-11-07T03:51:30.785Z,54.60
2018-11-07T03:53:59.293Z,55.77
2018-11-07T03:56:27.817Z,60.33
2018-11-07T03:58:56.622Z,52.50
2018-11-07T04:01:25.249Z,55.20
2018-11-07T04:03:53.849Z,57.53
2018-11-07T04:06:22.733Z,55.33
2018-11-07T04:08:51.237Z,54.10
2018-11-07T04:11:19.765Z,61.67
2018-11-07T04:13:48.289Z,55.27
2018-11-07T04:16:16.793Z,55.53
2018-11-07T04:18:46.001Z,49.20
2018-11-07T04:21:14.700Z,50.67
2018-11-07T04:23:47.417Z,50.57
2018-11-07T04:26:15.941Z,55.77
2018-11-07T04:28:44.421Z,61.40
2018-11-07T04:31:12.929Z,52.63
2018-11-07T04:33:41.450Z,60.23
2018-11-07T04:36:09.969Z,52.10
2018-11-07T04:38:38.465Z,50.97
2018-11-07T04:41:06.976Z,54.63
2018-11-07T04:43:35.460Z,49.47
2018-11-07T04:46:03.944Z,50.00
2018-11-07T04:48:32.464Z,58.13
2018-11-07T04:51:00.973Z,52.53
2018-11-07T04:53:29.449Z,57.37
2018-11-07T04:55:57.960Z,59.80
2018-11-07T04:58:26.428Z,58.50
2018-11-07T05:00:54.920Z,54.77
2018-11-07T05:03:23.452Z,56.20
2018-11-07T05:05:52.193Z,60.30
2018-11-07T05:08:20.705Z,59.37
2018-11-07T05:10:49.208Z,85.67
2018-11-07T05:13:17.736Z,129.47
2018-11-07T05:15:46.244Z,80.07
2018-11-07T05:18:14.722Z,61.43
2018-11-07T05:20:43.248Z,63.73
2018-11-07T05:23:11.744Z,52.00
2018-11-07T05:25:40.240Z,54.47
2018-11-07T05:28:08.740Z,65.07
2018-11-07T05:30:37.220Z,68.33
2018-11-07T05:33:05.759Z,67.20
2018-11-07T05:35:34.276Z,71.17
2018-11-07T05:38:02.752Z,69.33
2018-11-07T05:40:31.271Z,69.07
2018-11-07T05:42:59.751Z,64.90
2018-11-07T05:45:28.220Z,60.43
2018-11-07T05:47:56.800Z,64.40
2018-11-07T05:50:25.315Z,80.57
2018-11-07T05:52:53.811Z,79.03
2018-11-07T05:55:22.303Z,74.47
2018-11-07T05:57:50.815Z,68.40
2018-11-07T06:00:19.295Z,65.73
2018-11-07T06:02:47.790Z,68.67
2018-11-07T06:05:16.295Z,64.43
2018-11-07T06:07:44.782Z,65.50
2018-11-07T06:10:13.938Z,63.20
2018-11-07T06:12:42.878Z,72.27
2018-11-07T06:15:12.144Z,70.03
2018-11-07T06:17:40.624Z,63.37
2018-11-07T06:20:10.071Z,68.83
2018-11-07T06:22:38.639Z,74.40
2018-11-07T06:25:07.231Z,80.53
2018-11-07T06:27:35.742Z,66.70
2018-11-07T06:30:04.775Z,63.27
2018-11-07T06:32:33.279Z,66.53
2018-11-07T06:35:01.731Z,75.03
2018-11-07T06:37:30.215Z,73.83
2018-11-07T06:39:58.719Z,74.40
2018-11-07T06:42:27.206Z,84.47
2018-11-07T06:44:55.814Z,77.67
2018-11-07T06:47:24.299Z,87.90
2018-11-07T06:49:52.834Z,82.77
2018-11-07T06:52:21.302Z,87.70
2018-11-07T06:54:49.814Z,89.23
2018-11-07T06:57:18.341Z,101.63
2018-11-07T06:59:46.870Z,100.93
2018-11-07T07:02:15.378Z,103.50
2018-11-07T07:04:43.866Z,98.63
2018-11-07T07:07:12.383Z,102.20
2018-11-07T07:09:40.898Z,117.27
2018-11-07T07:12:09.390Z,103.27
2018-11-07T07:14:37.886Z,99.50
2018-11-07T07:17:06.430Z,105.27
2018-11-07T07:19:34.910Z,97.67
2018-11-07T07:22:03.390Z,106.70
2018-11-07T07:24:31.898Z,101.23
2018-11-07T07:27:00.390Z,93.67
2018-11-07T07:29:28.907Z,107.73
2018-11-07T07:31:57.530Z,102.43
2018-11-07T07:34:26.018Z,95.83
2018-11-07T07:36:54.499Z,95.20
2018-11-07T07:39:22.974Z,102.60
2018-11-07T07:41:51.470Z,95.80
2018-11-07T07:44:19.966Z,93.60
2018-11-07T07:46:48.478Z,98.37
2018-11-07T07:49:17.063Z,95.77
2018-11-07T07:51:45.513Z,98.40
2018-11-07T07:54:14.027Z,103.77
2018-11-07T07:56:42.518Z,101.67
2018-11-07T07:59:11.010Z,93.30
2018-11-07T08:01:39.506Z,105.73
2018-11-07T08:04:08.046Z,101.07
2018-11-07T08:06:37.621Z,108.63
2018-11-07T08:09:10.297Z,101.37
2018-11-07T08:11:39.293Z,101.10
2018-11-07T08:14:08.512Z,105.87
2018-11-07T08:16:36.997Z,91.60
2018-11-07T08:19:05.855Z,96.23
2018-11-07T08:21:34.350Z,95.80
2018-11-07T08:24:02.855Z,99.40
2018-11-07T08:26:31.345Z,89.67
2018-11-07T08:28:59.847Z,89.87
2018-11-07T08:31:28.341Z,89.67
2018-11-07T08:33:57.005Z,87.17
2018-11-07T08:36:25.513Z,87.97
2018-11-07T08:38:54.009Z,88.77
2018-11-07T08:41:22.520Z,108.87
2018-11-07T08:43:51.001Z,97.27
2018-11-07T08:46:19.813Z,94.63
2018-11-07T08:48:48.333Z,89.60
2018-11-07T08:51:16.831Z,97.17
2018-11-07T08:57:16.777Z,85.53
2018-11-07T08:59:45.244Z,88.43
2018-11-07T09:02:13.799Z,91.40
2018-11-07T09:04:42.244Z,95.93
2018-11-07T09:07:10.712Z,97.13
2018-11-07T09:09:39.212Z,94.00
2018-11-07T09:12:07.767Z,90.30
2018-11-07T09:14:36.256Z,92.73
2018-11-07T09:17:04.780Z,85.77
2018-11-07T09:19:33.288Z,88.77
2018-11-07T09:22:01.760Z,94.37
2018-11-07T09:24:30.339Z,92.63
2018-11-07T09:26:58.860Z,90.30
2018-11-07T09:29:27.329Z,82.40
2018-11-07T09:31:55.896Z,85.60
2018-11-07T09:34:24.402Z,87.03
2018-11-07T09:36:52.902Z,89.07
2018-11-07T09:39:21.368Z,80.23
2018-11-07T09:41:49.884Z,85.47
2018-11-07T09:44:18.374Z,77.37
2018-11-07T09:46:46.920Z,84.20
2018-11-07T09:49:15.508Z,80.90
2018-11-07T09:51:43.972Z,77.60
2018-11-07T09:54:12.554Z,76.73
2018-11-07T09:56:40.995Z,76.20
2018-11-07T09:59:09.519Z,75.27
2018-11-07T10:01:38.067Z,65.57
2018-11-07T10:04:06.574Z,70.23
2018-11-07T10:06:35.089Z,66.83
2018-11-07T10:09:04.007Z,57.27
2018-11-07T10:11:32.532Z,52.13
2018-11-07T10:14:01.083Z,57.57
2018-11-07T10:16:29.583Z,59.93
2018-11-07T10:18:58.160Z,55.03
2018-11-07T10:21:26.679Z,52.30
2018-11-07T10:23:55.782Z,64.93
2018-11-07T10:26:24.347Z,48.70
2018-11-07T10:28:53.099Z,49.03
2018-11-07T10:31:21.397Z,53.33
2018-11-07T10:33:49.887Z,55.23
2018-11-07T10:36:18.579Z,56.83
2018-11-07T10:38:47.181Z,58.43
2018-11-07T10:41:15.635Z,51.20
2018-11-07T10:43:44.173Z,51.87
2018-11-07T10:46:12.713Z,48.40
2018-11-07T10:48:41.215Z,53.80
2018-11-07T10:51:09.723Z,47.97
2018-11-07T10:53:38.199Z,43.90
2018-11-07T10:56:06.951Z,48.10
2018-11-07T10:58:35.707Z,45.33
2018-11-07T11:01:09.434Z,51.33
2018-11-07T11:03:37.922Z,49.73
2018-11-07T11:06:06.531Z,48.33
2018-11-07T11:08:35.422Z,43.40
2018-11-07T11:11:04.668Z,56.13
2018-11-07T11:13:33.194Z,49.10
2018-11-07T11:16:01.674Z,54.67
2018-11-07T11:18:30.402Z,53.57
2018-11-07T11:20:59.158Z,42.43
2018-11-07T11:23:27.658Z,51.27
2018-11-07T11:25:56.234Z,56.53
2018-11-07T11:28:25.062Z,52.47
2018-11-07T11:30:53.581Z,56.77
2018-11-07T11:33:22.114Z,46.97
2018-11-07T11:35:50.638Z,43.57
2018-11-07T11:38:19.457Z,40.60
2018-11-07T11:40:47.976Z,42.50
2018-11-07T11:43:16.486Z,46.87
2018-11-07T11:45:44.990Z,53.00
2018-11-07T11:48:13.490Z,51.60
2018-11-07T11:50:41.999Z,46.27
2018-11-07T11:53:10.485Z,51.63
2018-11-07T11:55:38.997Z,49.20
2018-11-07T11:58:07.513Z,48.53
2018-11-07T12:00:36.006Z,44.50
2018-11-07T12:03:04.577Z,44.87
2018-11-07T12:05:33.113Z,48.90
2018-11-07T12:08:01.657Z,50.67
2018-11-07T12:10:30.169Z,45.07
2018-11-07T12:12:58.748Z,51.90
2018-11-07T12:15:28.095Z,51.33
2018-11-07T12:17:56.850Z,45.30
2018-11-07T12:20:25.369Z,45.10
2018-11-07T12:22:53.868Z,43.47
2018-11-07T12:25:22.741Z,47.80
2018-11-07T12:27:51.249Z,51.63
2018-11-07T12:30:21.025Z,44.60
2018-11-07T12:32:50.641Z,48.40
2018-11-07T12:35:19.645Z,43.17
2018-11-07T12:37:48.269Z,43.47
2018-11-07T12:40:17.332Z,51.07
2018-11-07T12:42:45.925Z,52.03
2018-11-07T12:45:15.449Z,52.70
2018-11-07T12:47:43.949Z,49.23
2018-11-07T12:50:14.740Z,46.63
2018-11-07T12:52:43.944Z,43.63
2018-11-07T12:55:12.980Z,54.27
2018-11-07T12:57:41.511Z,51.73
2018-11-07T13:00:20.560Z,52.87
2018-11-07T13:02:49.125Z,49.40
2018-11-07T13:05:18.589Z,55.83
2018-11-07T13:07:47.960Z,46.53
2018-11-07T13:10:17.614Z,46.67
2018-11-07T13:12:46.568Z,44.80
2018-11-07T13:15:15.684Z,50.60
2018-11-07T13:17:44.686Z,52.80
2018-11-07T13:20:15.520Z,57.10
2018-11-07T13:22:45.025Z,48.23
2018-11-07T13:25:14.128Z,50.30
2018-11-07T13:27:42.632Z,45.73
2018-11-07T13:30:13.464Z,48.83
2018-11-07T13:32:42.048Z,48.93
2018-11-07T13:35:11.460Z,46.03
2018-11-07T13:37:40.823Z,40.60
2018-11-07T13:40:11.992Z,52.80
2018-11-07T13:42:40.524Z,48.90
2018-11-07T13:45:11.156Z,55.47
2018-11-07T13:47:40.536Z,57.80
2018-11-07T13:50:09.631Z,56.07
2018-11-07T13:52:38.161Z,55.80
2018-11-07T13:55:08.004Z,56.97
2018-11-07T13:57:36.504Z,61.60
2018-11-07T14:00:07.952Z,50.43
2018-11-07T14:02:36.480Z,55.20
2018-11-07T14:05:06.209Z,53.70
2018-11-07T14:07:34.768Z,56.07
2018-11-07T14:10:03.564Z,50.83
2018-11-07T14:12:32.148Z,50.63
2018-11-07T14:15:00.651Z,54.17
2018-11-07T14:17:29.128Z,51.10
2018-11-07T14:19:57.707Z,55.90
2018-11-07T14:22:26.211Z,51.77
2018-11-07T14:24:54.720Z,52.60
2018-11-07T14:27:23.270Z,50.00
2018-11-07T14:29:52.035Z,53.30
2018-11-07T14:32:20.815Z,52.70
2018-11-07T14:34:49.335Z,51.33
2018-11-07T14:37:17.867Z,57.03
2018-11-07T14:39:46.399Z,72.17
2018-11-07T14:42:14.892Z,55.00
2018-11-07T14:44:43.400Z,64.07
2018-11-07T14:47:11.953Z,56.73
2018-11-07T14:49:40.469Z,62.17
2018-11-07T14:52:08.979Z,62.80
2018-11-07T14:54:37.447Z,89.73
2018-11-07T14:57:05.971Z,120.73
2018-11-07T14:59:34.724Z,111.00
2018-11-07T15:02:03.419Z,76.20
2018-11-07T15:04:46.344Z,61.13
2018-11-07T15:07:14.839Z,65.40
2018-11-07T15:09:43.335Z,74.60
2018-11-07T15:12:11.860Z,73.37
2018-11-07T15:14:40.391Z,72.97
2018-11-07T15:17:08.997Z,82.47
2018-11-07T15:19:37.695Z,92.13
2018-11-07T15:22:06.326Z,85.43
2018-11-07T15:24:34.855Z,96.57
2018-11-07T15:27:03.363Z,83.40
2018-11-07T15:29:31.899Z,97.93
2018-11-07T15:32:00.382Z,88.77
2018-11-07T15:34:28.870Z,92.93
2018-11-07T15:36:57.435Z,89.83
2018-11-07T15:39:25.937Z,83.40
2018-11-07T15:41:54.450Z,91.97
2018-11-07T15:44:22.943Z,85.80
2018-11-07T15:46:51.435Z,98.97
2018-11-07T15:49:20.054Z,92.67
2018-11-07T15:51:52.873Z,87.90
2018-11-07T15:54:21.310Z,94.07
2018-11-07T15:56:49.814Z,92.80
2018-11-07T15:59:18.329Z,90.43
2018-11-07T16:01:46.830Z,98.47
2018-11-07T16:04:15.342Z,83.67
2018-11-07T16:06:43.886Z,92.57
2018-11-07T16:09:12.485Z,90.80
2018-11-07T16:11:40.998Z,87.07
2018-11-07T16:14:09.486Z,83.57
2018-11-07T16:16:37.993Z,79.63
2018-11-07T16:19:06.486Z,90.73
2018-11-07T16:21:34.977Z,78.73
2018-11-07T16:24:03.644Z,83.30
2018-11-07T16:26:32.161Z,77.60
2018-11-07T16:29:00.681Z,74.97
2018-11-07T16:31:29.247Z,71.60
2018-11-07T16:33:57.777Z,74.93
2018-11-07T16:36:26.260Z,83.23
2018-11-07T16:38:54.753Z,75.13
2018-11-07T16:41:23.691Z,75.80
2018-11-07T16:43:52.005Z,74.83
2018-11-07T16:46:20.503Z,75.77
2018-11-07T16:48:49.201Z,75.40
2018-11-07T16:51:17.721Z,76.87
2018-11-07T16:53:46.196Z,78.00
2018-11-07T16:56:14.697Z,77.10
2018-11-07T16:58:43.404Z,75.90
2018-11-07T17:01:11.905Z,83.33
2018-11-07T17:03:40.400Z,78.10
2018-11-07T17:06:09.032Z,73.40
2018-11-07T17:08:37.532Z,70.47
2018-11-07T17:11:06.261Z,74.13
2018-11-07T17:13:34.808Z,80.30
2018-11-07T17:16:03.316Z,77.00
2018-11-07T17:18:31.872Z,77.30
2018-11-07T17:21:00.376Z,76.63
2018-11-07T17:23:28.972Z,77.47
2018-11-07T17:25:57.508Z,71.00
2018-11-07T17:28:25.984Z,71.50
2018-11-07T17:30:54.476Z,84.13
2018-11-07T17:33:22.956Z,69.63
2018-11-07T17:35:51.431Z,72.80
2018-11-07T17:38:19.978Z,68.23
2018-11-07T17:40:48.559Z,68.67
2018-11-07T17:43:17.065Z,79.17
2018-11-07T17:45:45.544Z,74.90
2018-11-07T17:48:16.122Z,76.13
2018-11-07T17:50:44.503Z,74.00
2018-11-07T17:53:13.016Z,71.40
2018-11-07T17:55:41.501Z,66.03
2018-11-07T17:58:10.040Z,69.00
2018-11-07T18:00:38.538Z,55.90
2018-11-07T18:03:07.058Z,63.03
2018-11-07T18:05:35.559Z,71.77
2018-11-07T18:08:04.107Z,70.23
2018-11-07T18:10:32.631Z,73.70
2018-11-07T18:13:01.151Z,77.07
2018-11-07T18:15:29.657Z,70.00
2018-11-07T18:17:58.159Z,71.73
2018-11-07T18:20:26.666Z,67.53
2018-11-07T18:22:55.187Z,73.97
2018-11-07T18:25:23.671Z,71.77
2018-11-07T18:27:52.151Z,81.27
2018-11-07T18:30:20.635Z,78.93
2018-11-07T18:32:49.155Z,89.60
2018-11-07T18:35:18.867Z,91.63
2018-11-07T18:37:47.606Z,89.73
2018-11-07T18:40:17.504Z,76.40
2018-11-07T18:42:46.032Z,76.63
2018-11-07T18:45:14.994Z,92.33
2018-11-07T18:47:44.826Z,84.73
2018-11-07T18:50:15.961Z,83.47
2018-11-07T18:52:44.642Z,81.40
2018-11-07T18:55:14.358Z,77.47
2018-11-07T18:57:43.462Z,85.73
2018-11-07T19:00:13.878Z,74.67
2018-11-07T19:02:42.898Z,72.67
2018-11-07T19:05:11.782Z,79.23
2018-11-07T19:07:40.322Z,73.27
2018-11-07T19:10:14.530Z,79.97
2018-11-07T19:12:43.356Z,71.20
2018-11-07T19:15:13.086Z,75.57
2018-11-07T19:17:42.617Z,81.40
2018-11-07T19:20:12.317Z,91.77
2018-11-07T19:22:40.917Z,86.73
2018-11-07T19:25:11.746Z,81.90
2018-11-07T19:27:40.238Z,88.03
2018-11-07T19:30:11.073Z,100.20
2018-11-07T19:32:39.573Z,111.50
2018-11-07T19:35:09.622Z,101.93
2018-11-07T19:37:38.234Z,91.10
2018-11-07T19:40:08.207Z,89.13
2018-11-07T19:42:36.717Z,94.50
2018-11-07T19:45:06.945Z,98.60
2018-11-07T19:47:35.789Z,92.83
2018-11-07T19:50:04.319Z,89.57
2018-11-07T19:52:32.840Z,106.73
2018-11-07T19:55:01.402Z,91.20
2018-11-07T19:57:30.170Z,88.47
2018-11-07T19:59:58.685Z,97.93
2018-11-07T20:02:27.177Z,81.93
2018-11-07T20:04:55.690Z,89.67
2018-11-07T20:07:24.296Z,93.10
2018-11-07T20:09:52.778Z,80.97
2018-11-07T20:12:21.951Z,91.20
2018-11-07T20:14:51.668Z,92.13
2018-11-07T20:17:20.151Z,86.10
2018-11-07T20:19:48.660Z,88.83
2018-11-07T20:22:17.143Z,90.50
2018-11-07T20:24:45.644Z,89.00
2018-11-07T20:27:14.783Z,84.23
2018-11-07T20:29:43.293Z,95.07
2018-11-07T20:32:11.804Z,88.87
2018-11-07T20:34:40.315Z,85.40
2018-11-07T20:37:08.827Z,82.40
2018-11-07T20:39:37.315Z,80.80
2018-11-07T20:42:05.924Z,87.97
2018-11-07T20:44:34.419Z,94.47
2018-11-07T20:47:02.924Z,103.87
2018-11-07T20:49:31.411Z,89.13
2018-11-07T20:51:59.919Z,88.80
2018-11-07T20:54:28.409Z,89.73
2018-11-07T20:56:56.972Z,93.60
2018-11-07T20:59:25.500Z,93.47
2018-11-07T21:01:54.005Z,91.67
2018-11-07T21:04:22.484Z,92.13
2018-11-07T21:06:50.996Z,89.97
2018-11-07T21:09:19.485Z,95.53
2018-11-07T21:11:48.004Z,91.13
2018-11-07T21:14:16.476Z,95.00
2018-11-07T21:16:45.061Z,85.87
2018-11-07T21:19:13.927Z,98.73
2018-11-07T21:21:42.448Z,92.00
2018-11-07T21:24:10.941Z,92.90
2018-11-07T21:26:39.540Z,92.23
2018-11-07T21:29:08.009Z,94.87
2018-11-07T21:31:36.517Z,87.37
2018-11-07T21:34:05.100Z,98.93
2018-11-07T21:36:33.580Z,85.90
2018-11-07T21:39:02.144Z,105.73
2018-11-07T21:41:30.732Z,113.10
2018-11-07T21:43:59.324Z,99.07
2018-11-07T21:46:27.768Z,106.43
2018-11-07T21:48:56.256Z,90.90
2018-11-07T21:51:24.756Z,105.27
2018-11-07T21:53:53.211Z,102.63
2018-11-07T21:56:21.687Z,96.50
2018-11-07T21:58:50.227Z,85.33
2018-11-07T22:01:18.698Z,93.00
2018-11-07T22:03:47.199Z,84.63
2018-11-07T22:06:15.719Z,96.20
2018-11-07T22:08:44.201Z,93.93
2018-11-07T22:11:12.683Z,93.10
2018-11-07T22:13:41.163Z,83.87
2018-11-07T22:16:09.663Z,80.43
2018-11-07T22:18:38.135Z,87.70
2018-11-07T22:21:06.611Z,88.63
2018-11-07T22:23:35.123Z,85.87
2018-11-07T22:26:03.619Z,89.57
2018-11-07T22:28:32.095Z,89.37
2018-11-07T22:31:00.599Z,95.83
2018-11-07T22:33:29.091Z,98.90
2018-11-07T22:35:57.807Z,86.60
2018-11-07T22:38:27.619Z,83.27
2018-11-07T22:40:56.167Z,89.50
2018-11-07T22:43:24.687Z,89.23
2018-11-07T22:45:53.223Z,85.90
2018-11-07T22:48:21.735Z,83.60
2018-11-07T22:50:50.311Z,94.00
2018-11-07T22:53:18.810Z,97.87
2018-11-07T22:55:47.307Z,93.70
2018-11-07T22:58:15.797Z,95.90
2018-11-07T23:00:49.731Z,99.73
2018-11-07T23:03:18.214Z,96.60
2018-11-07T23:05:46.696Z,103.17
2018-11-07T23:08:15.203Z,98.90
2018-11-07T23:10:43.686Z,93.03
2018-11-07T23:13:12.205Z,106.80
2018-11-07T23:15:46.279Z,81.30
2018-11-07T23:18:15.431Z,109.37
2018-11-07T23:20:43.942Z,98.23
2018-11-07T23:23:13.469Z,107.80
2018-11-07T23:25:41.975Z,103.13
2018-11-07T23:28:10.488Z,112.50
2018-11-07T23:30:38.990Z,114.47
2018-11-07T23:33:07.498Z,115.97
2018-11-07T23:35:36.159Z,89.50
2018-11-07T23:38:04.746Z,95.43
2018-11-07T23:40:33.234Z,96.30
2018-11-07T23:43:01.728Z,94.37
2018-11-07T23:45:30.230Z,87.20
2018-11-07T23:47:58.740Z,91.50
2018-11-07T23:50:27.268Z,87.00
2018-11-07T23:52:55.762Z,78.13
2018-11-07T23:55:24.661Z,82.87
2018-11-07T23:57:53.770Z,76.90
